createdAt,value
2022-12-25T00:02:15.034Z,100819.19
2022-12-25T00:04:41.666Z,100820.06
2022-12-25T00:07:08.134Z,100817.44
2022-12-25T00:09:34.565Z,100833.97
2022-12-25T00:12:01.020Z,100833.09
2022-12-25T00:14:27.480Z,100825.31
2022-12-25T00:16:53.935Z,100823.56
2022-12-25T00:19:20.436Z,100822.72
2022-12-25T00:21:46.843Z,100818.34
2022-12-25T00:24:13.294Z,100820.13
2022-12-25T00:26:39.727Z,100812.28
2022-12-25T00:29:06.171Z,100814.00
2022-12-25T00:31:34.528Z,100813.16
2022-12-25T00:34:01.084Z,100818.38
2022-12-25T00:36:27.543Z,100816.63
2022-12-25T00:38:54.109Z,100816.63
2022-12-25T00:41:42.013Z,100823.56
2022-12-25T00:44:10.805Z,100822.69
2022-12-25T00:46:37.425Z,100822.69
2022-12-25T00:49:03.953Z,100816.63
2022-12-25T00:51:30.417Z,100812.25
2022-12-25T00:53:57.097Z,100813.13
2022-12-25T00:56:23.511Z,100821.78
2022-12-25T00:58:50.045Z,100810.53
2022-12-25T01:01:16.879Z,100815.72
2022-12-25T01:03:43.613Z,100820.03
2022-12-25T01:06:12.784Z,100820.03
2022-12-25T01:09:00.042Z,100809.59
2022-12-25T01:11:27.005Z,100817.41
2022-12-25T01:13:53.542Z,100818.22
2022-12-25T01:16:20.093Z,100819.09
2022-12-25T01:18:46.705Z,100826.03
2022-12-25T01:21:16.259Z,100823.44
2022-12-25T01:23:43.816Z,100819.09
2022-12-25T01:26:12.461Z,100825.19
2022-12-25T01:28:39.875Z,100826.94
2022-12-25T01:31:09.910Z,100823.44
2022-12-25T01:33:36.389Z,100812.13
2022-12-25T01:36:02.884Z,100811.25
2022-12-25T01:38:29.299Z,100801.69
2022-12-25T01:40:55.839Z,100805.97
2022-12-25T01:43:27.279Z,100810.28
2022-12-25T01:45:54.268Z,100809.41
2022-12-25T01:48:28.073Z,100799.81
2022-12-25T01:50:58.364Z,100795.47
2022-12-25T01:53:26.346Z,100793.66
2022-12-25T01:55:58.935Z,100794.53
2022-12-25T01:58:25.913Z,100800.63
2022-12-25T02:00:52.860Z,100807.56
2022-12-25T02:03:21.213Z,100804.94
2022-12-25T02:05:48.008Z,100811.03
2022-12-25T02:08:16.432Z,100811.03
2022-12-25T02:10:44.715Z,100814.50
2022-12-25T02:13:18.047Z,100818.88
2022-12-25T02:15:59.180Z,100826.69
2022-12-25T02:18:51.810Z,100824.97
2022-12-25T02:21:43.193Z,100831.84
2022-12-25T02:24:37.989Z,100824.00
2022-12-25T02:27:22.887Z,100820.53
2022-12-25T02:30:02.969Z,100817.06
2022-12-25T02:32:38.231Z,100826.63
2022-12-25T02:35:10.848Z,100823.16
2022-12-25T02:38:03.188Z,100833.56
2022-12-25T02:40:39.580Z,100828.34
2022-12-25T02:43:30.283Z,100824.91
2022-12-25T02:46:22.796Z,100817.94
2022-12-25T02:49:14.513Z,100822.31
2022-12-25T02:52:05.419Z,100831.84
2022-12-25T02:54:55.151Z,100826.63
2022-12-25T02:57:45.725Z,100820.56
2022-12-25T03:00:32.684Z,100823.16
2022-12-25T03:03:21.134Z,100818.78
2022-12-25T03:06:07.430Z,100810.97
2022-12-25T03:08:41.736Z,100818.81
2022-12-25T03:11:30.305Z,100817.06
2022-12-25T03:14:24.353Z,100808.38
2022-12-25T03:16:54.784Z,100814.47
2022-12-25T03:19:43.406Z,100812.69
2022-12-25T03:22:37.906Z,100802.28
2022-12-25T03:25:23.213Z,100795.31
2022-12-25T03:27:53.397Z,100803.16
2022-12-25T03:30:40.206Z,100802.28
2022-12-25T03:33:43.951Z,100805.75
2022-12-25T03:36:14.860Z,100791.00
2022-12-25T03:39:32.446Z,100787.47
2022-12-25T03:42:21.832Z,100786.59
2022-12-25T03:45:40.854Z,100770.97
2022-12-25T03:48:12.868Z,100763.13
2022-12-25T03:51:20.909Z,100771.81
2022-12-25T03:54:12.472Z,100761.34
2022-12-25T03:56:58.508Z,100737.03
2022-12-25T03:59:43.213Z,100738.75
2022-12-25T04:02:28.973Z,100740.50
2022-12-25T04:05:14.227Z,100740.47
2022-12-25T04:07:59.512Z,100745.72
2022-12-25T04:10:44.420Z,100739.63
2022-12-25T04:13:29.079Z,100756.16
2022-12-25T04:16:14.617Z,100770.97
2022-12-25T04:18:59.696Z,100767.44
2022-12-25T04:21:45.570Z,100759.59
2022-12-25T04:24:30.818Z,100759.59
2022-12-25T04:27:16.251Z,100759.56
2022-12-25T04:30:01.091Z,100756.94
2022-12-25T04:32:46.344Z,100756.94
2022-12-25T04:35:31.908Z,100764.75
2022-12-25T04:37:58.367Z,100769.94
2022-12-25T04:40:24.943Z,100769.88
2022-12-25T04:42:52.259Z,100767.31
2022-12-25T04:45:19.046Z,100749.88
2022-12-25T04:47:45.556Z,100749.88
2022-12-25T04:50:12.060Z,100740.34
2022-12-25T04:52:40.424Z,100744.63
2022-12-25T04:55:09.096Z,100743.72
2022-12-25T04:57:36.648Z,100743.72
2022-12-25T05:00:04.934Z,100732.38
2022-12-25T05:02:31.979Z,100738.41
2022-12-25T05:04:58.692Z,100748.00
2022-12-25T05:07:25.163Z,100737.56
2022-12-25T05:09:51.630Z,100739.28
2022-12-25T05:12:18.160Z,100738.41
2022-12-25T05:14:44.571Z,100747.06
2022-12-25T05:17:11.086Z,100741.84
2022-12-25T05:19:37.509Z,100735.75
2022-12-25T05:22:03.945Z,100727.91
2022-12-25T05:24:30.456Z,100732.22
2022-12-25T05:26:56.893Z,100732.16
2022-12-25T05:29:23.367Z,100720.03
2022-12-25T05:31:49.891Z,100709.63
2022-12-25T05:34:16.409Z,100702.69
2022-12-25T05:36:42.920Z,100694.84
2022-12-25T05:39:09.395Z,100697.41
2022-12-25T05:41:35.852Z,100694.84
2022-12-25T05:44:02.368Z,100690.50
2022-12-25T05:46:28.854Z,100695.72
2022-12-25T05:48:55.739Z,100699.22
2022-12-25T05:51:22.314Z,100699.28
2022-12-25T05:53:48.780Z,100692.34
2022-12-25T05:56:15.256Z,100695.88
2022-12-25T05:58:41.978Z,100705.44
2022-12-25T06:01:14.988Z,100708.06
2022-12-25T06:03:41.605Z,100706.41
2022-12-25T06:06:08.275Z,100711.59
2022-12-25T06:08:34.997Z,100689.91
2022-12-25T06:11:06.593Z,100689.09
2022-12-25T06:13:34.150Z,100679.56
2022-12-25T06:16:07.851Z,100680.44
2022-12-25T06:18:39.235Z,100676.16
2022-12-25T06:21:07.702Z,100674.41
2022-12-25T06:23:34.196Z,100690.06
2022-12-25T06:26:04.235Z,100684.84
2022-12-25T06:28:30.711Z,100676.16
2022-12-25T06:30:57.195Z,100670.06
2022-12-25T06:33:23.766Z,100664.00
2022-12-25T06:35:50.257Z,100650.09
2022-12-25T06:38:16.763Z,100643.09
2022-12-25T06:40:43.192Z,100641.41
2022-12-25T06:43:09.649Z,100637.00
2022-12-25T06:45:36.147Z,100647.44
2022-12-25T06:48:02.604Z,100630.88
2022-12-25T06:50:29.078Z,100622.19
2022-12-25T06:52:56.467Z,100630.00
2022-12-25T06:55:22.877Z,100633.50
2022-12-25T06:57:49.299Z,100635.28
2022-12-25T07:00:15.865Z,100643.09
2022-12-25T07:02:47.149Z,100643.09
2022-12-25T07:05:13.665Z,100639.59
2022-12-25T07:07:40.082Z,100635.22
2022-12-25T07:10:07.268Z,100620.47
2022-12-25T07:12:33.730Z,100605.63
2022-12-25T07:15:00.154Z,100602.19
2022-12-25T07:17:26.693Z,100603.91
2022-12-25T07:19:53.251Z,100612.50
2022-12-25T07:22:19.702Z,100591.66
2022-12-25T07:24:46.223Z,100579.41
2022-12-25T07:27:13.116Z,100578.56
2022-12-25T07:29:39.600Z,100571.56
2022-12-25T07:32:06.108Z,100586.31
2022-12-25T07:34:32.720Z,100592.41
2022-12-25T07:36:59.207Z,100586.28
2022-12-25T07:39:25.649Z,100585.44
2022-12-25T07:41:52.165Z,100580.22
2022-12-25T07:44:18.799Z,100563.72
2022-12-25T07:46:45.866Z,100560.19
2022-12-25T07:49:12.606Z,100557.50
2022-12-25T07:51:39.105Z,100549.66
2022-12-25T07:54:05.740Z,100543.53
2022-12-25T07:56:33.225Z,100558.34
2022-12-25T07:58:59.685Z,100565.28
2022-12-25T08:01:27.689Z,100573.13
2022-12-25T08:03:57.370Z,100570.50
2022-12-25T08:06:29.604Z,100577.41
2022-12-25T08:08:57.638Z,100575.63
2022-12-25T08:11:24.180Z,100566.06
2022-12-25T08:13:50.705Z,100569.53
2022-12-25T08:16:17.238Z,100556.50
2022-12-25T08:18:44.389Z,100552.13
2022-12-25T08:21:14.135Z,100553.88
2022-12-25T08:23:45.993Z,100571.22
2022-12-25T08:26:16.582Z,100585.16
2022-12-25T08:28:43.330Z,100586.06
2022-12-25T08:31:11.891Z,100565.16
2022-12-25T08:33:38.829Z,100546.88
2022-12-25T08:36:07.646Z,100516.47
2022-12-25T08:38:34.209Z,100522.47
2022-12-25T08:41:00.681Z,100528.50
2022-12-25T08:43:27.194Z,100551.09
2022-12-25T08:45:53.726Z,100580.59
2022-12-25T08:48:20.255Z,100584.97
2022-12-25T08:50:48.434Z,100612.72
2022-12-25T08:53:15.495Z,100617.91
2022-12-25T08:55:42.271Z,100613.53
2022-12-25T08:58:09.114Z,100610.09
2022-12-25T09:00:36.443Z,100586.63
2022-12-25T09:03:04.090Z,100583.13
2022-12-25T09:05:30.597Z,100576.09
2022-12-25T09:07:57.024Z,100566.47
2022-12-25T09:10:23.708Z,100548.16
2022-12-25T09:12:50.125Z,100553.41
2022-12-25T09:15:16.592Z,100562.09
2022-12-25T09:17:43.009Z,100565.56
2022-12-25T09:20:09.770Z,100570.78
2022-12-25T09:22:36.194Z,100562.13
2022-12-25T09:25:02.650Z,100578.72
2022-12-25T09:27:29.118Z,100591.72
2022-12-25T09:29:55.550Z,100587.31
2022-12-25T09:32:22.101Z,100607.41
2022-12-25T09:34:48.546Z,100613.50
2022-12-25T09:37:15.161Z,100606.63
2022-12-25T09:39:46.318Z,100598.81
2022-12-25T09:42:22.901Z,100603.19
2022-12-25T09:44:53.719Z,100608.47
2022-12-25T09:47:25.477Z,100611.97
2022-12-25T09:50:06.945Z,100616.34
2022-12-25T09:52:40.451Z,100619.78
2022-12-25T09:55:19.764Z,100622.41
2022-12-25T09:57:51.797Z,100624.19
2022-12-25T10:00:20.933Z,100614.66
2022-12-25T10:02:53.825Z,100605.09
2022-12-25T10:05:38.902Z,100599.00
2022-12-25T10:08:17.455Z,100586.81
2022-12-25T10:10:50.918Z,100592.00
2022-12-25T10:13:50.152Z,100595.50
2022-12-25T10:16:28.869Z,100595.53
2022-12-25T10:19:10.579Z,100576.28
2022-12-25T10:21:38.070Z,100546.75
2022-12-25T10:24:31.298Z,100549.31
2022-12-25T10:26:57.836Z,100546.69
2022-12-25T10:29:24.381Z,100534.47
2022-12-25T10:31:55.280Z,100539.72
2022-12-25T10:34:23.362Z,100539.66
2022-12-25T10:36:50.830Z,100534.44
2022-12-25T10:39:25.534Z,100539.59
2022-12-25T10:42:19.348Z,100538.78
2022-12-25T10:44:57.705Z,100530.88
2022-12-25T10:47:31.263Z,100518.69
2022-12-25T10:49:59.187Z,100524.78
2022-12-25T10:52:28.025Z,100517.81
2022-12-25T10:54:55.247Z,100518.72
2022-12-25T10:57:24.208Z,100513.47
2022-12-25T10:59:58.706Z,100513.41
2022-12-25T11:02:34.445Z,100516.91
2022-12-25T11:05:02.926Z,100509.09
2022-12-25T11:07:30.390Z,100502.06
2022-12-25T11:10:05.527Z,100493.31
2022-12-25T11:12:37.042Z,100480.25
2022-12-25T11:15:26.788Z,100469.78
2022-12-25T11:17:53.317Z,100477.63
2022-12-25T11:20:20.872Z,100481.94
2022-12-25T11:22:49.670Z,100469.78
2022-12-25T11:25:24.305Z,100449.69
2022-12-25T11:28:04.863Z,100446.16
2022-12-25T11:30:33.602Z,100417.44
2022-12-25T11:33:05.040Z,100403.50
2022-12-25T11:35:42.916Z,100379.06
2022-12-25T11:38:09.624Z,100378.97
2022-12-25T11:40:44.584Z,100372.84
2022-12-25T11:43:29.263Z,100350.19
2022-12-25T11:46:14.878Z,100359.75
2022-12-25T11:48:46.119Z,100364.09
2022-12-25T11:51:15.492Z,100362.38
2022-12-25T11:53:45.547Z,100361.50
2022-12-25T11:56:17.944Z,100360.72
2022-12-25T11:58:48.709Z,100365.88
2022-12-25T12:01:42.463Z,100364.13
2022-12-25T12:04:36.861Z,100333.63
2022-12-25T12:07:25.709Z,100348.44
2022-12-25T12:10:15.030Z,100336.31
2022-12-25T12:13:08.474Z,100346.75
2022-12-25T12:15:43.783Z,100339.81
2022-12-25T12:18:19.271Z,100342.38
2022-12-25T12:20:57.050Z,100335.41
2022-12-25T12:23:23.790Z,100331.09
2022-12-25T12:25:50.850Z,100334.59
2022-12-25T12:28:24.512Z,100326.75
2022-12-25T12:31:05.884Z,100323.25
2022-12-25T12:33:38.197Z,100319.78
2022-12-25T12:36:06.144Z,100327.59
2022-12-25T12:38:34.998Z,100324.06
2022-12-25T12:41:04.951Z,100320.56
2022-12-25T12:43:36.480Z,100304.91
2022-12-25T12:46:08.447Z,100323.97
2022-12-25T12:48:41.443Z,100309.06
2022-12-25T12:51:11.576Z,100309.19
2022-12-25T12:53:40.912Z,100298.66
2022-12-25T12:56:15.330Z,100289.06
2022-12-25T12:58:48.284Z,100285.56
2022-12-25T13:01:23.865Z,100277.69
2022-12-25T13:03:59.354Z,100283.81
2022-12-25T13:06:41.049Z,100283.81
2022-12-25T13:09:45.150Z,100293.41
2022-12-25T13:12:13.029Z,100283.84
2022-12-25T13:14:45.687Z,100285.56
2022-12-25T13:17:17.363Z,100270.66
2022-12-25T13:19:45.060Z,100268.94
2022-12-25T13:22:24.577Z,100270.63
2022-12-25T13:25:01.749Z,100260.13
2022-12-25T13:27:30.327Z,100261.00
2022-12-25T13:29:57.999Z,100255.75
2022-12-25T13:32:32.012Z,100263.56
2022-12-25T13:35:00.086Z,100257.53
2022-12-25T13:37:29.888Z,100251.44
2022-12-25T13:39:59.095Z,100250.41
2022-12-25T13:42:28.416Z,100252.13
2022-12-25T13:45:02.075Z,100259.88
2022-12-25T13:47:38.603Z,100262.50
2022-12-25T13:50:26.161Z,100261.59
2022-12-25T13:52:54.599Z,100268.63
2022-12-25T13:55:24.285Z,100268.53
2022-12-25T13:57:53.956Z,100267.59
2022-12-25T14:00:32.280Z,100260.69
2022-12-25T14:02:59.491Z,100258.88
2022-12-25T14:05:42.180Z,100257.16
2022-12-25T14:08:26.279Z,100253.63
2022-12-25T14:10:54.134Z,100254.50
2022-12-25T14:13:25.674Z,100255.34
2022-12-25T14:15:53.488Z,100256.25
2022-12-25T14:18:22.070Z,100259.72
2022-12-25T14:21:06.941Z,100255.34
2022-12-25T14:23:48.619Z,100254.38
2022-12-25T14:26:16.983Z,100258.75
2022-12-25T14:28:48.346Z,100260.63
2022-12-25T14:31:15.159Z,100257.97
2022-12-25T14:33:42.011Z,100251.84
2022-12-25T14:36:12.107Z,100247.38
2022-12-25T14:38:41.514Z,100249.25
2022-12-25T14:41:33.319Z,100250.00
2022-12-25T14:44:02.724Z,100255.22
2022-12-25T14:46:32.260Z,100246.44
2022-12-25T14:49:06.745Z,100262.97
2022-12-25T14:51:38.823Z,100249.00
2022-12-25T14:54:15.736Z,100249.94
2022-12-25T14:56:47.747Z,100255.13
2022-12-25T14:59:18.467Z,100244.59
2022-12-25T15:01:51.806Z,100238.47
2022-12-25T15:04:20.560Z,100249.91
2022-12-25T15:07:07.165Z,100235.09
2022-12-25T15:09:35.866Z,100229.81
2022-12-25T15:12:02.450Z,100240.19
2022-12-25T15:14:31.074Z,100231.47
2022-12-25T15:17:00.597Z,100225.25
2022-12-25T15:19:36.902Z,100229.56
2022-12-25T15:22:04.745Z,100233.16
2022-12-25T15:24:31.268Z,100222.59
2022-12-25T15:27:00.148Z,100219.09
2022-12-25T15:29:59.731Z,100213.09
2022-12-25T15:32:20.448Z,100206.81
2022-12-25T15:34:49.593Z,100195.56
2022-12-25T15:37:17.826Z,100193.84
2022-12-25T15:39:44.743Z,100199.13
2022-12-25T15:42:17.216Z,100201.72
2022-12-25T15:44:44.616Z,100200.00
2022-12-25T15:47:16.404Z,100203.34
2022-12-25T15:49:43.234Z,100203.34
2022-12-25T15:52:16.722Z,100207.72
2022-12-25T15:54:43.549Z,100200.75
2022-12-25T15:57:20.428Z,100199.03
2022-12-25T15:59:47.062Z,100203.25
2022-12-25T16:02:19.545Z,100202.44
2022-12-25T16:04:46.816Z,100201.53
2022-12-25T16:07:18.970Z,100190.19
2022-12-25T16:09:45.600Z,100189.31
2022-12-25T16:12:12.404Z,100193.69
2022-12-25T16:14:38.964Z,100190.19
2022-12-25T16:17:05.564Z,100182.25
2022-12-25T16:19:32.270Z,100178.75
2022-12-25T16:21:59.156Z,100179.59
2022-12-25T16:24:25.690Z,100176.13
2022-12-25T16:26:52.140Z,100174.34
2022-12-25T16:29:18.609Z,100174.25
2022-12-25T16:31:45.142Z,100174.25
2022-12-25T16:34:11.649Z,100177.69
2022-12-25T16:36:38.283Z,100175.13
2022-12-25T16:39:05.564Z,100180.41
2022-12-25T16:41:32.332Z,100171.59
2022-12-25T16:43:58.785Z,100189.06
2022-12-25T16:46:25.340Z,100188.94
2022-12-25T16:48:51.833Z,100187.25
2022-12-25T16:51:20.263Z,100179.31
2022-12-25T16:53:47.276Z,100169.78
2022-12-25T16:56:16.551Z,100187.19
2022-12-25T16:58:46.474Z,100176.72
2022-12-25T17:01:17.206Z,100181.06
2022-12-25T17:03:44.387Z,100171.38
2022-12-25T17:06:20.530Z,100175.69
2022-12-25T17:08:47.290Z,100178.25
2022-12-25T17:11:14.180Z,100187.78
2022-12-25T17:13:40.773Z,100171.25
2022-12-25T17:16:15.916Z,100177.41
2022-12-25T17:18:42.782Z,100180.81
2022-12-25T17:21:09.438Z,100189.56
2022-12-25T17:23:38.889Z,100181.66
2022-12-25T17:26:05.797Z,100191.19
2022-12-25T17:28:34.643Z,100185.94
2022-12-25T17:31:08.564Z,100188.50
2022-12-25T17:33:40.159Z,100196.34
2022-12-25T17:36:10.752Z,100192.94
2022-12-25T17:38:37.635Z,100193.84
2022-12-25T17:41:06.425Z,100199.09
2022-12-25T17:43:34.746Z,100193.09
2022-12-25T17:46:06.934Z,100208.69
2022-12-25T17:48:36.126Z,100197.38
2022-12-25T17:51:08.225Z,100196.47
2022-12-25T17:53:36.451Z,100190.38
2022-12-25T17:56:03.362Z,100196.63
2022-12-25T17:58:29.823Z,100188.78
2022-12-25T18:00:56.314Z,100191.38
2022-12-25T18:03:23.027Z,100190.53
2022-12-25T18:05:49.610Z,100198.31
2022-12-25T18:08:16.055Z,100196.63
2022-12-25T18:10:43.978Z,100195.84
2022-12-25T18:13:12.153Z,100189.72
2022-12-25T18:15:39.949Z,100193.16
2022-12-25T18:18:08.243Z,100190.56
2022-12-25T18:20:39.953Z,100187.09
2022-12-25T18:23:07.704Z,100190.56
2022-12-25T18:25:34.276Z,100192.34
2022-12-25T18:28:02.689Z,100184.50
2022-12-25T18:30:29.523Z,100184.56
2022-12-25T18:32:56.039Z,100190.66
2022-12-25T18:35:22.641Z,100188.16
2022-12-25T18:37:49.152Z,100184.72
2022-12-25T18:40:15.649Z,100182.03
2022-12-25T18:42:43.272Z,100189.09
2022-12-25T18:45:12.618Z,100180.34
2022-12-25T18:47:39.390Z,100184.63
2022-12-25T18:50:07.021Z,100182.88
2022-12-25T18:52:49.658Z,100185.59
2022-12-25T18:55:17.887Z,100186.44
2022-12-25T18:57:44.430Z,100188.16
2022-12-25T19:00:11.160Z,100187.34
2022-12-25T19:02:37.769Z,100185.66
2022-12-25T19:05:05.614Z,100197.84
2022-12-25T19:07:32.130Z,100200.50
2022-12-25T19:09:58.580Z,100192.66
2022-12-25T19:12:25.054Z,100204.88
2022-12-25T19:14:51.714Z,100183.97
2022-12-25T19:17:18.715Z,100196.19
2022-12-25T19:19:45.851Z,100195.28
2022-12-25T19:22:12.516Z,100198.78
2022-12-25T19:24:38.994Z,100199.66
2022-12-25T19:27:05.924Z,100190.97
2022-12-25T19:29:32.673Z,100197.94
2022-12-25T19:31:59.252Z,100206.59
2022-12-25T19:34:25.851Z,100212.59
2022-12-25T19:36:52.382Z,100212.72
2022-12-25T19:39:18.892Z,100217.00
2022-12-25T19:41:45.421Z,100217.00
2022-12-25T19:44:11.931Z,100223.97
2022-12-25T19:46:40.735Z,100223.06
2022-12-25T19:49:11.306Z,100224.84
2022-12-25T19:51:42.127Z,100223.69
2022-12-25T19:54:14.286Z,100220.84
2022-12-25T19:56:41.907Z,100227.44
2022-12-25T19:59:08.420Z,100228.84
2022-12-25T20:01:34.967Z,100217.47
2022-12-25T20:04:01.751Z,100226.13
2022-12-25T20:06:32.262Z,100209.56
2022-12-25T20:09:15.066Z,100208.16
2022-12-25T20:11:43.407Z,100209.25
2022-12-25T20:14:12.557Z,100216.31
2022-12-25T20:16:40.233Z,100213.81
2022-12-25T20:19:07.213Z,100217.34
2022-12-25T20:21:33.799Z,100210.44
2022-12-25T20:24:00.279Z,100207.06
2022-12-25T20:26:29.596Z,100207.13
2022-12-25T20:28:57.064Z,100223.78
2022-12-25T20:31:27.431Z,100209.94
2022-12-25T20:33:55.767Z,100205.56
2022-12-25T20:36:22.761Z,100209.06
2022-12-25T20:38:49.289Z,100201.28
2022-12-25T20:41:28.787Z,100209.16
2022-12-25T20:43:56.703Z,100218.78
2022-12-25T20:46:24.171Z,100232.75
2022-12-25T20:48:51.860Z,100227.44
2022-12-25T20:51:21.829Z,100223.00
2022-12-25T20:53:48.912Z,100215.22
2022-12-25T20:56:18.260Z,100221.44
2022-12-25T20:58:45.076Z,100220.47
2022-12-25T21:01:14.502Z,100226.63
2022-12-25T21:03:41.463Z,100204.78
2022-12-25T21:06:08.918Z,100217.88
2022-12-25T21:08:36.324Z,100210.13
2022-12-25T21:11:04.202Z,100213.63
2022-12-25T21:13:36.488Z,100220.56
2022-12-25T21:16:08.541Z,100219.72
2022-12-25T21:18:35.593Z,100216.25
2022-12-25T21:21:05.730Z,100218.88
2022-12-25T21:23:36.932Z,100217.97
2022-12-25T21:26:16.804Z,100218.91
2022-12-25T21:28:43.296Z,100215.47
2022-12-25T21:31:10.323Z,100214.63
2022-12-25T21:33:52.398Z,100214.63
2022-12-25T21:36:28.282Z,100216.38
2022-12-25T21:38:57.533Z,100217.25
2022-12-25T21:41:25.085Z,100223.38
2022-12-25T21:43:51.594Z,100216.44
2022-12-25T21:46:18.675Z,100225.13
2022-12-25T21:48:45.794Z,100233.88
2022-12-25T21:51:34.362Z,100240.78
2022-12-25T21:54:01.640Z,100252.13
2022-12-25T21:56:34.382Z,100247.69
2022-12-25T21:59:05.379Z,100275.31
2022-12-25T22:01:31.916Z,100275.22
2022-12-25T22:04:06.397Z,100280.03
2022-12-25T22:06:52.340Z,100277.44
2022-12-25T22:09:19.354Z,100277.47
2022-12-25T22:12:04.270Z,100265.97
2022-12-25T22:14:52.215Z,100267.88
2022-12-25T22:17:42.040Z,100273.19
2022-12-25T22:20:11.297Z,100283.59
2022-12-25T22:22:37.781Z,100290.50
2022-12-25T22:25:05.515Z,100287.91
2022-12-25T22:27:34.706Z,100293.22
2022-12-25T22:30:01.987Z,100293.22
2022-12-25T22:32:28.608Z,100301.13
2022-12-25T22:34:55.186Z,100294.16
2022-12-25T22:37:21.836Z,100287.28
2022-12-25T22:39:48.559Z,100301.25
2022-12-25T22:42:15.785Z,100302.19
2022-12-25T22:44:42.395Z,100296.13
2022-12-25T22:47:09.070Z,100304.00
2022-12-25T22:49:35.671Z,100315.38
2022-12-25T22:52:02.482Z,100304.81
2022-12-25T22:54:31.132Z,100308.38
2022-12-25T22:56:58.506Z,100313.59
2022-12-25T22:59:25.195Z,100310.94
2022-12-25T23:01:51.846Z,100317.75
2022-12-25T23:04:18.523Z,100320.19
2022-12-25T23:06:46.446Z,100317.31
2022-12-25T23:09:24.119Z,100321.69
2022-12-25T23:11:51.249Z,100320.88
2022-12-25T23:14:36.266Z,100325.16
2022-12-25T23:17:02.856Z,100327.81
2022-12-25T23:19:47.995Z,100330.34
2022-12-25T23:22:33.496Z,100330.53
2022-12-25T23:25:18.188Z,100326.06
2022-12-25T23:27:45.921Z,100328.84
2022-12-25T23:30:14.323Z,100328.97
2022-12-25T23:32:41.240Z,100323.44
2022-12-25T23:35:08.202Z,100313.75
2022-12-25T23:37:34.741Z,100322.47
2022-12-25T23:40:01.249Z,100319.03
2022-12-25T23:42:27.740Z,100318.31
2022-12-25T23:44:54.302Z,100314.88
2022-12-25T23:47:20.799Z,100312.94
2022-12-25T23:49:47.254Z,100311.25
2022-12-25T23:52:13.979Z,100309.59
2022-12-25T23:54:40.505Z,100316.59
2022-12-25T23:57:07.111Z,100305.41
2022-12-25T23:59:33.593Z,100312.34
